createdAt,value
2022-10-17T00:00:14.107Z,35.08
2022-10-17T00:00:36.999Z,34.85
2022-10-17T00:00:59.691Z,34.47
2022-10-17T00:01:22.467Z,35.05
2022-10-17T00:01:45.370Z,34.75
2022-10-17T00:02:08.501Z,35.75
2022-10-17T00:02:34.140Z,35.13
2022-10-17T00:02:56.981Z,35.33
2022-10-17T00:03:19.801Z,33.30
2022-10-17T00:03:42.550Z,32.80
2022-10-17T00:04:05.340Z,33.88
2022-10-17T00:04:29.125Z,33.38
2022-10-17T00:04:51.902Z,34.80
2022-10-17T00:05:14.651Z,33.97
2022-10-17T00:05:40.281Z,34.83
2022-10-17T00:06:06.197Z,34.80
2022-10-17T00:06:29.241Z,34.45
2022-10-17T00:06:51.961Z,33.92
2022-10-17T00:07:14.735Z,33.13
2022-10-17T00:07:37.480Z,34.50
2022-10-17T00:08:00.241Z,36.05
2022-10-17T00:08:23.190Z,35.50
2022-10-17T00:08:45.916Z,34.95
2022-10-17T00:09:09.771Z,34.85
2022-10-17T00:09:32.439Z,34.60
2022-10-17T00:09:55.341Z,34.28
2022-10-17T00:10:18.157Z,34.90
2022-10-17T00:10:41.060Z,34.15
2022-10-17T00:11:05.695Z,33.20
2022-10-17T00:11:28.476Z,33.90
2022-10-17T00:11:51.202Z,33.65
2022-10-17T00:12:15.417Z,33.05
2022-10-17T00:12:38.197Z,34.25
2022-10-17T00:13:00.978Z,34.67
2022-10-17T00:13:23.736Z,33.83
2022-10-17T00:13:46.888Z,34.47
2022-10-17T00:14:09.692Z,35.00
2022-10-17T00:14:32.448Z,34.05
2022-10-17T00:14:55.202Z,34.90
2022-10-17T00:15:19.036Z,35.92
2022-10-17T00:15:44.488Z,34.33
2022-10-17T00:16:08.293Z,33.92
2022-10-17T00:16:32.644Z,32.95
2022-10-17T00:16:55.355Z,33.38
2022-10-17T00:17:18.020Z,33.30
2022-10-17T00:17:42.235Z,34.08
2022-10-17T00:18:04.935Z,34.00
2022-10-17T00:18:27.732Z,35.03
2022-10-17T00:18:50.419Z,35.25
2022-10-17T00:19:13.099Z,33.30
2022-10-17T00:19:35.798Z,33.90
2022-10-17T00:19:59.543Z,33.90
2022-10-17T00:20:22.246Z,33.38
2022-10-17T00:20:44.982Z,33.10
2022-10-17T00:21:14.651Z,33.90
2022-10-17T00:21:37.531Z,33.70
2022-10-17T00:22:00.201Z,34.20
2022-10-17T00:22:22.943Z,36.17
2022-10-17T00:22:45.934Z,34.92
2022-10-17T00:23:08.809Z,34.63
2022-10-17T00:23:31.533Z,34.70
2022-10-17T00:23:54.564Z,35.97
2022-10-17T00:24:17.367Z,35.40
2022-10-17T00:24:40.163Z,35.35
2022-10-17T00:25:02.903Z,36.03
2022-10-17T00:25:25.615Z,34.45
2022-10-17T00:25:48.334Z,35.22
2022-10-17T00:26:11.098Z,35.42
2022-10-17T00:26:33.973Z,35.97
2022-10-17T00:26:56.776Z,35.63
2022-10-17T00:27:20.829Z,35.20
2022-10-17T00:27:43.520Z,35.40
2022-10-17T00:28:06.377Z,34.08
2022-10-17T00:28:31.587Z,35.22
2022-10-17T00:28:54.604Z,35.47
2022-10-17T00:29:17.343Z,35.83
2022-10-17T00:29:40.082Z,35.50
2022-10-17T00:30:02.903Z,35.55
2022-10-17T00:30:25.567Z,36.13
2022-10-17T00:30:55.295Z,36.67
2022-10-17T00:31:18.478Z,37.45
2022-10-17T00:31:42.320Z,36.75
2022-10-17T00:32:05.595Z,37.40
2022-10-17T00:32:28.653Z,37.90
2022-10-17T00:32:51.724Z,38.28
2022-10-17T00:33:14.391Z,39.53
2022-10-17T00:33:37.333Z,40.15
2022-10-17T00:34:00.109Z,39.47
2022-10-17T00:34:22.869Z,39.28
2022-10-17T00:34:45.588Z,40.05
2022-10-17T00:35:11.318Z,41.35
2022-10-17T00:35:34.228Z,40.88
2022-10-17T00:36:06.410Z,41.03
2022-10-17T00:36:29.291Z,42.42
2022-10-17T00:36:52.013Z,43.10
2022-10-17T00:37:14.750Z,42.67
2022-10-17T00:37:37.451Z,42.30
2022-10-17T00:38:00.183Z,43.58
2022-10-17T00:38:22.885Z,42.30
2022-10-17T00:38:47.076Z,40.95
2022-10-17T00:39:09.923Z,41.00
2022-10-17T00:39:32.971Z,43.00
2022-10-17T00:39:55.727Z,42.53
2022-10-17T00:40:18.475Z,42.97
2022-10-17T00:40:41.215Z,42.53
2022-10-17T00:41:04.302Z,42.60
2022-10-17T00:41:28.625Z,43.03
2022-10-17T00:41:51.356Z,43.10
2022-10-17T00:42:14.062Z,44.30
2022-10-17T00:42:38.220Z,43.83
2022-10-17T00:43:00.949Z,43.63
2022-10-17T00:43:23.660Z,43.97
2022-10-17T00:43:54.236Z,43.53
2022-10-17T00:45:04.387Z,43.78
2022-10-17T00:45:27.770Z,43.65
2022-10-17T00:45:50.429Z,44.13
2022-10-17T00:46:13.225Z,42.10
2022-10-17T00:46:37.735Z,42.50
2022-10-17T00:47:02.060Z,43.08
2022-10-17T00:47:24.940Z,43.30
2022-10-17T00:47:49.235Z,42.53
2022-10-17T00:48:12.010Z,42.33
2022-10-17T00:48:34.793Z,41.72
2022-10-17T00:48:58.560Z,42.42
2022-10-17T00:49:21.345Z,41.95
2022-10-17T00:49:44.179Z,41.67
2022-10-17T00:50:07.276Z,41.03
2022-10-17T00:50:30.141Z,42.13
2022-10-17T00:50:52.869Z,42.45
2022-10-17T00:51:15.719Z,43.08
2022-10-17T00:51:41.203Z,41.13
2022-10-17T00:52:04.973Z,42.50
2022-10-17T00:52:28.745Z,42.15
2022-10-17T00:52:51.788Z,41.67
2022-10-17T00:53:14.593Z,42.42
2022-10-17T00:53:37.699Z,41.53
2022-10-17T00:54:00.506Z,42.17
2022-10-17T00:54:24.648Z,42.17
2022-10-17T00:54:49.602Z,41.28
2022-10-17T00:55:15.352Z,41.65
2022-10-17T00:55:39.584Z,43.17
2022-10-17T00:56:02.293Z,43.08
2022-10-17T00:56:27.644Z,41.80
2022-10-17T00:56:50.319Z,41.47
2022-10-17T00:57:14.076Z,43.85
2022-10-17T00:57:38.363Z,42.47
2022-10-17T00:58:02.242Z,42.13
2022-10-17T00:58:25.057Z,43.58
2022-10-17T00:58:47.719Z,43.97
2022-10-17T00:59:11.074Z,43.30
2022-10-17T00:59:33.886Z,43.45
2022-10-17T00:59:56.633Z,43.50
2022-10-17T01:00:19.435Z,44.00
2022-10-17T01:00:42.723Z,45.25
2022-10-17T01:01:05.788Z,45.95
2022-10-17T01:01:28.534Z,45.55
2022-10-17T01:01:54.323Z,44.58
2022-10-17T01:02:18.856Z,47.15
2022-10-17T01:02:41.670Z,46.38
2022-10-17T01:03:04.493Z,45.22
2022-10-17T01:03:27.434Z,45.30
2022-10-17T01:03:50.041Z,47.42
2022-10-17T01:04:12.856Z,46.60
2022-10-17T01:04:35.952Z,46.72
2022-10-17T01:04:59.689Z,45.35
2022-10-17T01:05:22.468Z,43.92
2022-10-17T01:05:45.174Z,45.35
2022-10-17T01:06:07.848Z,45.55
2022-10-17T01:06:30.562Z,45.08
2022-10-17T01:06:53.309Z,45.28
2022-10-17T01:07:16.131Z,45.00
2022-10-17T01:07:39.346Z,44.17
2022-10-17T01:08:02.072Z,42.78
2022-10-17T01:08:24.773Z,43.03
2022-10-17T01:08:47.518Z,43.00
2022-10-17T01:09:10.253Z,42.95
2022-10-17T01:09:32.979Z,41.80
2022-10-17T01:09:55.675Z,41.53
2022-10-17T01:10:18.575Z,42.15
2022-10-17T01:10:48.304Z,41.08
2022-10-17T01:11:19.975Z,43.42
2022-10-17T01:11:48.786Z,41.90
2022-10-17T01:12:15.579Z,41.03
2022-10-17T01:12:46.551Z,41.42
2022-10-17T01:13:12.467Z,42.72
2022-10-17T01:13:39.485Z,41.55
2022-10-17T01:14:04.571Z,42.03
2022-10-17T01:14:30.100Z,41.75
2022-10-17T01:15:03.261Z,41.90
2022-10-17T01:15:33.843Z,41.78
2022-10-17T01:16:01.922Z,42.05
2022-10-17T01:16:30.231Z,41.22
2022-10-17T01:16:55.956Z,40.50
2022-10-17T01:17:22.645Z,42.22
2022-10-17T01:17:52.963Z,43.08
2022-10-17T01:18:22.092Z,42.20
2022-10-17T01:18:54.100Z,42.35
2022-10-17T01:19:35.075Z,41.97
2022-10-17T01:20:26.723Z,43.03
2022-10-17T01:21:10.409Z,42.97
2022-10-17T01:21:44.964Z,42.08
2022-10-17T01:22:09.324Z,44.13
2022-10-17T01:22:33.400Z,41.45
2022-10-17T01:22:59.388Z,42.40
2022-10-17T01:23:31.249Z,41.58
2022-10-17T01:24:18.563Z,41.67
2022-10-17T01:25:25.276Z,42.13
2022-10-17T01:25:52.661Z,42.58
2022-10-17T01:26:19.538Z,43.05
2022-10-17T01:27:09.460Z,43.90
2022-10-17T01:27:55.239Z,44.95
2022-10-17T01:28:26.342Z,44.72
2022-10-17T01:29:12.424Z,43.70
2022-10-17T01:29:47.668Z,46.22
2022-10-17T01:30:45.218Z,46.03
2022-10-17T01:31:09.993Z,46.35
2022-10-17T01:31:34.159Z,47.63
2022-10-17T01:31:59.685Z,47.78
2022-10-17T01:32:24.341Z,47.63
2022-10-17T01:32:48.326Z,46.88
2022-10-17T01:33:12.758Z,48.53
2022-10-17T01:33:47.133Z,49.97
2022-10-17T01:34:13.516Z,50.22
2022-10-17T01:34:39.056Z,49.92
2022-10-17T01:35:04.357Z,49.80
2022-10-17T01:35:28.723Z,48.92
2022-10-17T01:35:54.136Z,52.63
2022-10-17T01:36:24.636Z,55.17
2022-10-17T01:36:51.306Z,54.05
2022-10-17T01:37:16.474Z,53.05
2022-10-17T01:37:41.811Z,53.78
2022-10-17T01:38:07.043Z,55.30
2022-10-17T01:38:32.404Z,53.97
2022-10-17T01:38:59.574Z,55.65
2022-10-17T01:39:29.978Z,55.88
2022-10-17T01:39:55.528Z,54.05
2022-10-17T01:40:21.455Z,54.92
2022-10-17T01:40:45.629Z,51.88
2022-10-17T01:41:11.074Z,53.03
2022-10-17T01:41:42.094Z,58.70
2022-10-17T01:42:13.492Z,57.67
2022-10-17T01:42:38.087Z,56.83
2022-10-17T01:43:03.765Z,58.47
2022-10-17T01:43:29.268Z,58.45
2022-10-17T01:43:54.725Z,58.40
2022-10-17T01:44:20.798Z,57.83
2022-10-17T01:44:47.439Z,56.80
2022-10-17T01:45:13.030Z,57.05
2022-10-17T01:45:38.873Z,56.42
2022-10-17T01:46:03.275Z,55.72
2022-10-17T01:46:28.489Z,56.72
2022-10-17T01:46:51.410Z,57.20
2022-10-17T01:47:15.825Z,55.92
2022-10-17T01:47:38.552Z,55.42
2022-10-17T01:48:04.543Z,54.15
2022-10-17T01:48:31.003Z,53.10
2022-10-17T01:48:53.841Z,52.65
2022-10-17T01:49:16.633Z,52.78
2022-10-17T01:49:39.684Z,55.60
2022-10-17T01:50:04.778Z,54.60
2022-10-17T01:50:31.398Z,52.92
2022-10-17T01:50:55.943Z,53.88
2022-10-17T01:51:21.201Z,51.08
2022-10-17T01:51:45.218Z,52.60
2022-10-17T01:52:10.012Z,53.85
2022-10-17T01:52:34.983Z,53.17
2022-10-17T01:52:59.825Z,55.60
2022-10-17T01:53:24.552Z,52.30
2022-10-17T01:53:50.734Z,51.78
2022-10-17T01:54:15.036Z,53.72
2022-10-17T01:54:40.365Z,51.33
2022-10-17T01:55:06.001Z,62.42
2022-10-17T01:55:31.174Z,54.30
2022-10-17T01:55:54.443Z,57.13
2022-10-17T01:56:17.102Z,53.55
2022-10-17T01:56:40.819Z,53.28
2022-10-17T01:57:06.214Z,55.95
2022-10-17T01:57:31.178Z,57.72
2022-10-17T01:57:55.264Z,66.15
2022-10-17T01:58:22.400Z,59.70
2022-10-17T01:58:47.761Z,54.35
2022-10-17T01:59:13.001Z,54.95
2022-10-17T01:59:37.235Z,55.42
2022-10-17T01:59:59.955Z,55.20
2022-10-17T02:00:24.972Z,58.40
2022-10-17T02:00:47.737Z,60.20
2022-10-17T02:01:11.401Z,53.55
2022-10-17T02:01:35.754Z,55.30
2022-10-17T02:01:58.568Z,53.28
2022-10-17T02:02:21.175Z,52.22
2022-10-17T02:02:44.420Z,53.13
2022-10-17T02:03:08.486Z,52.70
2022-10-17T02:03:31.685Z,52.22
2022-10-17T02:03:54.471Z,54.10
2022-10-17T02:04:17.201Z,55.58
2022-10-17T02:04:39.936Z,51.72
2022-10-17T02:05:02.701Z,52.95
2022-10-17T02:05:27.343Z,51.28
2022-10-17T02:05:50.091Z,51.10
2022-10-17T02:06:12.841Z,51.72
2022-10-17T02:06:36.395Z,52.58
2022-10-17T02:07:06.416Z,51.80
2022-10-17T02:07:29.389Z,49.80
2022-10-17T02:07:52.471Z,50.25
2022-10-17T02:08:15.760Z,50.05
2022-10-17T02:08:42.626Z,50.83
2022-10-17T02:09:19.871Z,49.67
2022-10-17T02:09:43.195Z,49.42
2022-10-17T02:10:11.300Z,49.95
2022-10-17T02:10:39.333Z,48.55
2022-10-17T02:11:03.545Z,45.85
2022-10-17T02:11:26.994Z,46.72
2022-10-17T02:12:04.576Z,46.95
2022-10-17T02:12:38.095Z,47.67
2022-10-17T02:13:02.380Z,48.83
2022-10-17T02:13:30.985Z,48.67
2022-10-17T02:14:13.848Z,48.00
2022-10-17T02:14:41.910Z,49.10
2022-10-17T02:15:21.937Z,48.85
2022-10-17T02:15:58.033Z,49.60
2022-10-17T02:16:24.385Z,47.70
2022-10-17T02:16:51.915Z,50.45
2022-10-17T02:17:17.425Z,48.72
2022-10-17T02:17:45.054Z,49.85
2022-10-17T02:18:19.425Z,47.78
2022-10-17T02:18:53.216Z,47.47
2022-10-17T02:19:36.827Z,49.08
2022-10-17T02:20:02.967Z,51.00
2022-10-17T02:20:26.978Z,48.60
2022-10-17T02:20:52.195Z,48.75
2022-10-17T02:21:19.040Z,48.38
2022-10-17T02:21:46.615Z,48.42
2022-10-17T02:22:18.280Z,48.65
2022-10-17T02:22:44.185Z,48.97
2022-10-17T02:23:10.289Z,49.20
2022-10-17T02:23:36.642Z,48.80
2022-10-17T02:24:03.181Z,48.17
2022-10-17T02:24:28.968Z,47.95
2022-10-17T02:24:55.083Z,47.50
2022-10-17T02:25:23.200Z,48.10
2022-10-17T02:25:49.005Z,48.30
2022-10-17T02:26:13.775Z,49.13
2022-10-17T02:26:38.800Z,48.80
2022-10-17T02:27:05.011Z,47.15
2022-10-17T02:27:34.065Z,47.42
2022-10-17T02:27:59.663Z,49.60
2022-10-17T02:28:23.751Z,52.13
2022-10-17T02:28:51.554Z,47.90
2022-10-17T02:29:15.562Z,48.08
2022-10-17T02:29:40.636Z,48.78
2022-10-17T02:30:09.025Z,50.10
2022-10-17T02:30:34.276Z,48.75
2022-10-17T02:31:00.179Z,48.20
2022-10-17T02:31:24.792Z,48.83
2022-10-17T02:31:50.112Z,47.60
2022-10-17T02:32:14.165Z,48.10
2022-10-17T02:32:39.145Z,50.08
2022-10-17T02:33:02.736Z,48.42
2022-10-17T02:33:28.040Z,45.47
2022-10-17T02:33:52.950Z,46.60
2022-10-17T02:34:18.225Z,46.83
2022-10-17T02:34:42.866Z,46.40
2022-10-17T02:35:06.163Z,46.75
2022-10-17T02:35:30.656Z,45.53
2022-10-17T02:35:55.295Z,45.00
2022-10-17T02:36:20.526Z,45.83
2022-10-17T02:36:46.716Z,46.38
2022-10-17T02:37:10.382Z,46.22
2022-10-17T02:37:35.718Z,46.80
2022-10-17T02:37:58.495Z,46.65
2022-10-17T02:38:21.361Z,46.10
2022-10-17T02:38:44.242Z,47.78
2022-10-17T02:39:07.090Z,46.42
2022-10-17T02:39:29.760Z,45.25
2022-10-17T02:39:52.643Z,46.30
2022-10-17T02:40:15.836Z,45.47
2022-10-17T02:40:39.686Z,45.20
2022-10-17T02:41:02.355Z,46.65
2022-10-17T02:41:25.098Z,44.83
2022-10-17T02:41:47.841Z,41.83
2022-10-17T02:42:12.155Z,42.80
2022-10-17T02:42:34.786Z,43.42
2022-10-17T02:42:57.665Z,46.22
2022-10-17T02:43:20.810Z,45.17
2022-10-17T02:43:45.515Z,43.03
2022-10-17T02:44:08.116Z,43.00
2022-10-17T02:44:31.184Z,42.22
2022-10-17T02:44:53.884Z,41.33
2022-10-17T02:45:16.774Z,47.53
2022-10-17T02:45:39.433Z,45.97
2022-10-17T02:46:02.102Z,43.83
2022-10-17T02:46:24.834Z,42.45
2022-10-17T02:46:56.153Z,42.10
2022-10-17T02:47:20.948Z,41.15
2022-10-17T02:47:48.768Z,40.60
2022-10-17T02:48:14.710Z,41.80
2022-10-17T02:48:38.864Z,40.40
2022-10-17T02:49:03.061Z,40.80
2022-10-17T02:49:28.042Z,40.50
2022-10-17T02:49:52.317Z,41.50
2022-10-17T02:50:15.153Z,41.55
2022-10-17T02:50:43.549Z,42.78
2022-10-17T02:51:10.264Z,41.25
2022-10-17T02:51:36.001Z,41.42
2022-10-17T02:52:01.581Z,40.00
2022-10-17T02:52:28.761Z,40.10
2022-10-17T02:52:52.962Z,41.00
2022-10-17T02:53:17.521Z,40.75
2022-10-17T02:53:44.001Z,41.22
2022-10-17T02:54:09.997Z,41.60
2022-10-17T02:54:37.424Z,45.97
2022-10-17T02:55:03.929Z,49.70
2022-10-17T02:55:29.660Z,45.22
2022-10-17T02:55:54.564Z,41.53
2022-10-17T02:56:18.884Z,40.53
2022-10-17T02:56:43.939Z,42.28
2022-10-17T02:57:08.490Z,43.20
2022-10-17T02:57:34.045Z,42.50
2022-10-17T02:57:58.203Z,43.28
2022-10-17T02:58:22.187Z,43.80
2022-10-17T02:58:45.759Z,43.83
2022-10-17T02:59:08.580Z,43.40
2022-10-17T02:59:31.376Z,43.33
2022-10-17T02:59:54.077Z,45.53
2022-10-17T03:00:17.662Z,42.67
2022-10-17T03:00:40.369Z,43.15
2022-10-17T03:01:03.156Z,44.00
2022-10-17T03:01:25.936Z,44.17
2022-10-17T03:01:49.036Z,44.33
2022-10-17T03:02:13.276Z,44.83
2022-10-17T03:02:42.566Z,43.35
2022-10-17T03:03:11.206Z,44.83
2022-10-17T03:03:34.003Z,46.33
2022-10-17T03:04:06.042Z,44.15
2022-10-17T03:04:28.700Z,44.72
2022-10-17T03:04:51.502Z,44.28
2022-10-17T03:05:18.285Z,44.55
2022-10-17T03:05:41.165Z,43.58
2022-10-17T03:06:03.948Z,43.58
2022-10-17T03:06:26.697Z,44.10
2022-10-17T03:06:50.146Z,44.83
2022-10-17T03:07:12.910Z,44.50
2022-10-17T03:07:38.190Z,47.00
2022-10-17T03:08:00.929Z,48.42
2022-10-17T03:08:24.810Z,47.75
2022-10-17T03:08:47.519Z,50.50
2022-10-17T03:09:10.219Z,50.83
2022-10-17T03:09:33.009Z,47.50
2022-10-17T03:09:55.816Z,45.63
2022-10-17T03:10:18.683Z,44.53
2022-10-17T03:10:41.409Z,45.42
2022-10-17T03:11:04.150Z,45.28
2022-10-17T03:11:29.739Z,46.58
2022-10-17T03:11:52.488Z,53.78
2022-10-17T03:12:15.254Z,44.80
2022-10-17T03:12:37.929Z,45.80
2022-10-17T03:13:00.645Z,52.25
2022-10-17T03:13:23.375Z,52.88
2022-10-17T03:13:46.091Z,48.53
2022-10-17T03:14:08.963Z,44.25
2022-10-17T03:14:31.594Z,45.75
2022-10-17T03:14:54.263Z,44.45
2022-10-17T03:15:17.054Z,44.53
2022-10-17T03:15:39.709Z,45.47
2022-10-17T03:16:02.384Z,48.83
2022-10-17T03:16:25.144Z,51.60
2022-10-17T03:16:47.853Z,44.83
2022-10-17T03:17:12.017Z,46.92
2022-10-17T03:17:35.045Z,45.13
2022-10-17T03:17:57.846Z,46.20
2022-10-17T03:18:20.571Z,45.58
2022-10-17T03:18:45.397Z,45.63
2022-10-17T03:19:10.704Z,48.47
2022-10-17T03:19:33.589Z,50.60
2022-10-17T03:19:56.234Z,46.05
2022-10-17T03:20:18.959Z,44.53
2022-10-17T03:20:41.679Z,43.55
2022-10-17T03:21:04.670Z,42.15
2022-10-17T03:21:27.410Z,42.30
2022-10-17T03:21:50.155Z,42.60
2022-10-17T03:22:12.946Z,41.00
2022-10-17T03:22:35.952Z,41.92
2022-10-17T03:23:01.544Z,43.58
2022-10-17T03:23:24.295Z,41.97
2022-10-17T03:23:47.040Z,42.70
2022-10-17T03:24:09.784Z,43.03
2022-10-17T03:24:32.475Z,41.30
2022-10-17T03:24:55.219Z,40.97
2022-10-17T03:25:17.914Z,43.63
2022-10-17T03:25:40.984Z,42.92
2022-10-17T03:26:04.319Z,40.83
2022-10-17T03:26:27.185Z,40.15
2022-10-17T03:26:49.912Z,42.55
2022-10-17T03:27:12.716Z,40.45
2022-10-17T03:27:35.456Z,41.97
2022-10-17T03:27:59.517Z,40.97
2022-10-17T03:28:22.307Z,42.55
2022-10-17T03:28:45.078Z,41.63
2022-10-17T03:29:07.848Z,41.13
2022-10-17T03:29:30.548Z,41.30
2022-10-17T03:29:53.286Z,41.45
2022-10-17T03:30:16.120Z,43.80
2022-10-17T03:30:39.085Z,42.95
2022-10-17T03:31:06.455Z,41.17
2022-10-17T03:31:29.216Z,40.88
2022-10-17T03:31:51.898Z,39.00
2022-10-17T03:32:16.050Z,40.42
2022-10-17T03:32:38.981Z,42.85
2022-10-17T03:33:01.687Z,42.00
2022-10-17T03:33:24.475Z,40.88
2022-10-17T03:33:47.200Z,38.88
2022-10-17T03:34:09.881Z,40.05
2022-10-17T03:34:32.645Z,38.92
2022-10-17T03:34:57.985Z,38.65
2022-10-17T03:35:20.721Z,39.00
2022-10-17T03:35:43.541Z,37.97
2022-10-17T03:36:07.610Z,37.67
2022-10-17T03:36:30.266Z,36.97
2022-10-17T03:36:55.476Z,36.88
2022-10-17T03:37:18.190Z,46.10
2022-10-17T03:37:40.902Z,43.97
2022-10-17T03:38:03.596Z,38.28
2022-10-17T03:38:26.391Z,41.80
2022-10-17T03:38:49.430Z,60.42
2022-10-17T03:39:12.156Z,46.65
2022-10-17T03:39:35.045Z,45.67
2022-10-17T03:39:57.925Z,48.90
2022-10-17T03:40:20.651Z,50.75
2022-10-17T03:40:43.370Z,39.28
2022-10-17T03:41:09.000Z,39.25
2022-10-17T03:41:31.676Z,40.50
2022-10-17T03:41:54.280Z,44.90
2022-10-17T03:42:16.976Z,40.42
2022-10-17T03:42:39.680Z,40.10
2022-10-17T03:43:02.437Z,37.90
2022-10-17T03:43:25.140Z,38.47
2022-10-17T03:43:47.880Z,39.78
2022-10-17T03:44:10.615Z,38.75
2022-10-17T03:44:33.547Z,39.95
2022-10-17T03:44:56.190Z,41.38
2022-10-17T03:45:18.887Z,41.67
2022-10-17T03:45:41.523Z,42.70
2022-10-17T03:46:04.323Z,41.33
2022-10-17T03:46:27.030Z,40.63
2022-10-17T03:46:49.705Z,40.65
2022-10-17T03:47:14.168Z,38.20
2022-10-17T03:47:38.716Z,40.55
2022-10-17T03:48:01.437Z,41.25
2022-10-17T03:48:24.255Z,51.58
2022-10-17T03:48:46.905Z,42.67
2022-10-17T03:49:09.591Z,41.80
2022-10-17T03:49:32.318Z,51.90
2022-10-17T03:49:55.050Z,43.50
2022-10-17T03:50:17.875Z,44.65
2022-10-17T03:50:41.595Z,45.45
2022-10-17T03:51:05.608Z,46.80
2022-10-17T03:51:28.285Z,39.63
2022-10-17T03:51:50.950Z,40.20
2022-10-17T03:52:14.875Z,40.25
2022-10-17T03:52:37.600Z,39.20
2022-10-17T03:53:00.345Z,39.60
2022-10-17T03:53:23.041Z,38.65
2022-10-17T03:53:45.839Z,38.17
2022-10-17T03:54:08.670Z,38.58
2022-10-17T03:54:31.379Z,38.25
2022-10-17T03:54:54.180Z,37.20
2022-10-17T03:55:16.963Z,36.78
2022-10-17T03:55:39.609Z,35.33
2022-10-17T03:56:10.730Z,35.05
2022-10-17T03:56:33.757Z,35.33
2022-10-17T03:57:20.191Z,32.90
2022-10-17T03:57:45.371Z,32.50
2022-10-17T03:58:08.553Z,33.28
2022-10-17T03:58:31.233Z,33.05
2022-10-17T03:58:54.790Z,32.58
2022-10-17T03:59:18.490Z,31.95
2022-10-17T03:59:41.269Z,32.45
2022-10-17T04:00:05.460Z,32.25
2022-10-17T04:00:28.244Z,31.95
2022-10-17T04:00:51.097Z,32.85
2022-10-17T04:01:14.647Z,32.60
2022-10-17T04:01:37.480Z,32.33
2022-10-17T04:02:00.166Z,32.60
2022-10-17T04:02:25.723Z,32.72
2022-10-17T04:02:50.000Z,31.90
2022-10-17T04:03:17.116Z,32.05
2022-10-17T04:03:40.478Z,31.65
2022-10-17T04:04:03.363Z,30.77
2022-10-17T04:04:26.275Z,30.85
2022-10-17T04:04:49.060Z,30.67
2022-10-17T04:05:11.819Z,31.70
2022-10-17T04:05:34.568Z,29.90
2022-10-17T04:06:00.178Z,30.20
2022-10-17T04:06:22.964Z,30.45
2022-10-17T04:06:45.644Z,30.20
2022-10-17T04:07:08.380Z,29.25
2022-10-17T04:07:31.130Z,29.13
2022-10-17T04:07:53.840Z,29.83
2022-10-17T04:08:16.731Z,29.90
2022-10-17T04:08:43.054Z,29.10
2022-10-17T04:09:06.249Z,29.65
2022-10-17T04:09:28.993Z,29.92
2022-10-17T04:09:51.897Z,29.55
2022-10-17T04:10:14.684Z,29.20
2022-10-17T04:10:37.357Z,29.00
2022-10-17T04:11:01.283Z,28.50
2022-10-17T04:11:24.017Z,28.45
2022-10-17T04:11:46.776Z,28.70
2022-10-17T04:12:09.511Z,28.98
2022-10-17T04:12:32.461Z,29.50
2022-10-17T04:12:55.348Z,29.67
2022-10-17T04:13:18.077Z,29.70
2022-10-17T04:13:41.296Z,29.30
2022-10-17T04:14:04.027Z,28.90
2022-10-17T04:14:26.886Z,29.52
2022-10-17T04:14:49.606Z,29.02
2022-10-17T04:15:12.633Z,27.85
2022-10-17T04:15:35.336Z,28.15
2022-10-17T04:15:58.567Z,28.02
2022-10-17T04:16:21.283Z,28.20
2022-10-17T04:16:44.067Z,28.30
2022-10-17T04:17:06.836Z,27.95
2022-10-17T04:17:34.575Z,26.38
2022-10-17T04:18:02.154Z,27.73
2022-10-17T04:18:25.048Z,27.45
2022-10-17T04:18:52.209Z,27.83
2022-10-17T04:19:14.914Z,28.27
2022-10-17T04:19:37.682Z,28.05
2022-10-17T04:20:00.482Z,28.85
2022-10-17T04:20:23.884Z,29.38
2022-10-17T04:20:46.747Z,30.13
2022-10-17T04:21:09.666Z,29.83
2022-10-17T04:21:32.391Z,30.10
2022-10-17T04:21:55.246Z,31.27
2022-10-17T04:22:18.080Z,31.17
2022-10-17T04:22:40.831Z,32.03
2022-10-17T04:23:03.575Z,30.75
2022-10-17T04:23:27.216Z,29.58
2022-10-17T04:23:52.800Z,29.50
2022-10-17T04:24:15.555Z,30.33
2022-10-17T04:24:38.255Z,30.10
2022-10-17T04:25:01.005Z,30.40
2022-10-17T04:25:23.735Z,30.83
2022-10-17T04:25:46.451Z,31.13
2022-10-17T04:26:09.442Z,30.83
2022-10-17T04:26:32.205Z,31.48
2022-10-17T04:26:55.154Z,31.70
2022-10-17T04:27:17.885Z,31.58
2022-10-17T04:27:40.627Z,33.30
2022-10-17T04:28:03.412Z,35.90
2022-10-17T04:28:26.534Z,35.78
2022-10-17T04:28:49.669Z,35.33
2022-10-17T04:29:12.360Z,33.75
2022-10-17T04:29:35.142Z,33.10
2022-10-17T04:29:58.029Z,33.00
2022-10-17T04:30:20.674Z,33.97
2022-10-17T04:30:45.477Z,33.85
2022-10-17T04:31:10.398Z,32.20
2022-10-17T04:31:33.219Z,32.97
2022-10-17T04:31:56.330Z,32.90
2022-10-17T04:32:19.182Z,32.10
2022-10-17T04:32:41.994Z,32.17
2022-10-17T04:33:06.203Z,32.08
2022-10-17T04:33:28.969Z,33.88
2022-10-17T04:33:52.799Z,35.00
2022-10-17T04:34:15.600Z,35.88
2022-10-17T04:34:38.263Z,35.60
2022-10-17T04:35:00.958Z,34.80
2022-10-17T04:35:23.678Z,36.25
2022-10-17T04:35:54.884Z,36.45
2022-10-17T04:36:18.603Z,35.67
2022-10-17T04:36:41.443Z,36.72
2022-10-17T04:37:04.178Z,35.53
2022-10-17T04:37:26.890Z,34.92
2022-10-17T04:37:49.828Z,35.00
2022-10-17T04:38:12.629Z,35.17
2022-10-17T04:38:35.296Z,34.75
2022-10-17T04:38:58.216Z,34.03
2022-10-17T04:39:20.930Z,34.80
2022-10-17T04:39:43.561Z,34.45
2022-10-17T04:40:08.304Z,35.35
2022-10-17T04:40:31.074Z,35.30
2022-10-17T04:40:53.787Z,35.28
2022-10-17T04:41:17.514Z,34.55
2022-10-17T04:41:40.325Z,35.42
2022-10-17T04:42:03.051Z,34.80
2022-10-17T04:42:25.919Z,35.40
2022-10-17T04:42:49.050Z,35.60
2022-10-17T04:43:11.860Z,35.60
2022-10-17T04:43:36.084Z,34.92
2022-10-17T04:44:01.611Z,34.95
2022-10-17T04:44:24.313Z,33.78
2022-10-17T04:44:47.041Z,33.95
2022-10-17T04:45:10.353Z,33.10
2022-10-17T04:45:33.193Z,34.30
2022-10-17T04:45:57.268Z,33.35
2022-10-17T04:46:20.025Z,33.25
2022-10-17T04:46:42.748Z,32.42
2022-10-17T04:47:05.444Z,31.85
2022-10-17T04:47:28.202Z,32.83
2022-10-17T04:47:51.071Z,32.55
2022-10-17T04:48:15.317Z,32.65
2022-10-17T04:48:38.070Z,32.25
2022-10-17T04:49:00.806Z,32.20
2022-10-17T04:49:23.655Z,32.85
2022-10-17T04:49:46.453Z,33.42
2022-10-17T04:50:09.757Z,34.40
2022-10-17T04:50:32.472Z,33.90
2022-10-17T04:50:55.377Z,33.22
2022-10-17T04:51:20.687Z,33.42
2022-10-17T04:51:46.037Z,33.38
2022-10-17T04:52:08.815Z,33.42
2022-10-17T04:52:32.505Z,33.00
2022-10-17T04:52:55.602Z,33.13
2022-10-17T04:53:18.351Z,32.15
2022-10-17T04:53:41.227Z,31.92
2022-10-17T04:54:04.082Z,31.90
2022-10-17T04:54:26.836Z,32.22
2022-10-17T04:54:49.576Z,32.20
2022-10-17T04:55:12.226Z,32.33
2022-10-17T04:55:39.055Z,32.65
2022-10-17T04:56:01.803Z,32.22
2022-10-17T04:56:24.873Z,32.22
2022-10-17T04:56:48.853Z,31.73
2022-10-17T04:57:11.663Z,30.95
2022-10-17T04:57:35.841Z,31.58
2022-10-17T04:57:58.875Z,30.52
2022-10-17T04:58:21.570Z,30.60
2022-10-17T04:58:44.409Z,29.75
2022-10-17T04:59:07.038Z,30.02
2022-10-17T04:59:30.089Z,29.48
2022-10-17T04:59:52.880Z,29.15
2022-10-17T05:00:15.872Z,30.10
2022-10-17T05:00:38.603Z,30.30
2022-10-17T05:01:05.507Z,30.85
2022-10-17T05:01:28.550Z,30.23
2022-10-17T05:01:51.335Z,30.05
2022-10-17T05:02:14.175Z,30.65
2022-10-17T05:02:36.965Z,31.15
2022-10-17T05:02:59.669Z,32.53
2022-10-17T05:03:23.935Z,30.85
2022-10-17T05:03:46.720Z,31.02
2022-10-17T05:04:09.500Z,31.27
2022-10-17T05:04:32.193Z,30.45
2022-10-17T05:04:54.954Z,30.40
2022-10-17T05:05:17.755Z,30.70
2022-10-17T05:05:40.656Z,30.70
2022-10-17T05:06:07.460Z,31.02
2022-10-17T05:06:30.575Z,31.48
2022-10-17T05:06:54.295Z,31.23
2022-10-17T05:07:17.041Z,30.10
2022-10-17T05:07:40.856Z,30.50
2022-10-17T05:08:04.780Z,31.20
2022-10-17T05:08:27.687Z,30.60
2022-10-17T05:08:50.420Z,29.40
2022-10-17T05:09:13.121Z,29.85
2022-10-17T05:09:35.900Z,29.35
2022-10-17T05:09:59.266Z,29.38
2022-10-17T05:10:22.241Z,28.48
2022-10-17T05:10:46.353Z,28.95
2022-10-17T05:11:19.483Z,28.52
2022-10-17T05:11:43.547Z,27.83
2022-10-17T05:12:09.449Z,28.60
2022-10-17T05:12:33.145Z,28.98
2022-10-17T05:12:55.853Z,28.60
2022-10-17T05:13:18.552Z,28.58
2022-10-17T05:13:41.314Z,28.00
2022-10-17T05:14:04.079Z,28.20
2022-10-17T05:14:26.982Z,28.02
2022-10-17T05:14:52.536Z,28.02
2022-10-17T05:15:15.416Z,27.75
2022-10-17T05:15:38.161Z,27.67
2022-10-17T05:16:01.076Z,27.55